sensor_id;sensor_type;location;lat;lon;timestamp;P1;durP1;ratioP1;P2;durP2;ratioP2
22030;SDS011;11179;52.106;21.024;2023-06-05T00:00:37;9.47;;;3.80;;
22030;SDS011;11179;52.106;21.024;2023-06-05T00:03:02;11.70;;;4.07;;
22030;SDS011;11179;52.106;21.024;2023-06-05T00:05:28;9.03;;;3.83;;
22030;SDS011;11179;52.106;21.024;2023-06-05T00:07:54;10.73;;;3.40;;
22030;SDS011;11179;52.106;21.024;2023-06-05T00:10:20;10.90;;;3.70;;
22030;SDS011;11179;52.106;21.024;2023-06-05T00:12:45;11.20;;;4.13;;
22030;SDS011;11179;52.106;21.024;2023-06-05T00:15:10;9.20;;;3.30;;
22030;SDS011;11179;52.106;21.024;2023-06-05T00:17:36;8.90;;;3.43;;
22030;SDS011;11179;52.106;21.024;2023-06-05T00:20:02;11.93;;;3.80;;
22030;SDS011;11179;52.106;21.024;2023-06-05T00:22:28;12.50;;;3.60;;
22030;SDS011;11179;52.106;21.024;2023-06-05T00:24:56;8.67;;;3.70;;
22030;SDS011;11179;52.106;21.024;2023-06-05T00:27:22;9.70;;;3.40;;
22030;SDS011;11179;52.106;21.024;2023-06-05T00:29:48;8.93;;;3.33;;
22030;SDS011;11179;52.106;21.024;2023-06-05T00:32:14;12.10;;;2.83;;
22030;SDS011;11179;52.106;21.024;2023-06-05T00:34:39;6.63;;;2.87;;
22030;SDS011;11179;52.106;21.024;2023-06-05T00:37:05;9.07;;;3.43;;
22030;SDS011;11179;52.106;21.024;2023-06-05T00:39:31;7.30;;;3.00;;
22030;SDS011;11179;52.106;21.024;2023-06-05T00:41:57;10.20;;;3.53;;
22030;SDS011;11179;52.106;21.024;2023-06-05T00:44:22;9.30;;;3.33;;
22030;SDS011;11179;52.106;21.024;2023-06-05T00:46:48;11.20;;;3.37;;
22030;SDS011;11179;52.106;21.024;2023-06-05T00:49:15;9.03;;;3.20;;
22030;SDS011;11179;52.106;21.024;2023-06-05T00:51:41;8.67;;;3.10;;
22030;SDS011;11179;52.106;21.024;2023-06-05T00:54:09;8.63;;;3.07;;
22030;SDS011;11179;52.106;21.024;2023-06-05T00:56:35;7.10;;;3.00;;
22030;SDS011;11179;52.106;21.024;2023-06-05T00:59:01;6.70;;;2.80;;
22030;SDS011;11179;52.106;21.024;2023-06-05T01:01:27;8.17;;;3.33;;
22030;SDS011;11179;52.106;21.024;2023-06-05T01:03:55;6.73;;;3.40;;
22030;SDS011;11179;52.106;21.024;2023-06-05T01:06:29;8.57;;;3.40;;
22030;SDS011;11179;52.106;21.024;2023-06-05T01:08:56;7.87;;;3.10;;
22030;SDS011;11179;52.106;21.024;2023-06-05T01:14:23;9.10;;;3.07;;
22030;SDS011;11179;52.106;21.024;2023-06-05T01:16:53;5.93;;;3.10;;
22030;SDS011;11179;52.106;21.024;2023-06-05T01:19:19;6.43;;;2.70;;
22030;SDS011;11179;52.106;21.024;2023-06-05T01:21:45;6.40;;;2.70;;
22030;SDS011;11179;52.106;21.024;2023-06-05T01:24:12;10.20;;;3.00;;
22030;SDS011;11179;52.106;21.024;2023-06-05T01:32:32;9.10;;;3.30;;
22030;SDS011;11179;52.106;21.024;2023-06-05T01:35:09;7.60;;;2.80;;
22030;SDS011;11179;52.106;21.024;2023-06-05T01:37:42;6.80;;;2.83;;
22030;SDS011;11179;52.106;21.024;2023-06-05T01:40:12;6.23;;;2.70;;
22030;SDS011;11179;52.106;21.024;2023-06-05T01:42:40;11.70;;;3.60;;
22030;SDS011;11179;52.106;21.024;2023-06-05T01:45:07;7.33;;;2.67;;
22030;SDS011;11179;52.106;21.024;2023-06-05T01:47:35;7.20;;;3.27;;
22030;SDS011;11179;52.106;21.024;2023-06-05T01:50:02;7.70;;;3.40;;
22030;SDS011;11179;52.106;21.024;2023-06-05T01:52:28;11.43;;;3.20;;
22030;SDS011;11179;52.106;21.024;2023-06-05T01:54:53;8.53;;;3.43;;
22030;SDS011;11179;52.106;21.024;2023-06-05T01:57:20;11.10;;;3.70;;
22030;SDS011;11179;52.106;21.024;2023-06-05T01:59:45;7.80;;;2.90;;
22030;SDS011;11179;52.106;21.024;2023-06-05T02:02:11;8.30;;;3.27;;
22030;SDS011;11179;52.106;21.024;2023-06-05T02:04:39;8.70;;;3.30;;
22030;SDS011;11179;52.106;21.024;2023-06-05T02:07:05;8.07;;;2.90;;
22030;SDS011;11179;52.106;21.024;2023-06-05T02:09:31;5.70;;;3.03;;
22030;SDS011;11179;52.106;21.024;2023-06-05T02:11:59;8.27;;;3.00;;
22030;SDS011;11179;52.106;21.024;2023-06-05T02:14:28;8.03;;;3.37;;
22030;SDS011;11179;52.106;21.024;2023-06-05T02:16:57;6.70;;;3.50;;
22030;SDS011;11179;52.106;21.024;2023-06-05T02:19:23;10.53;;;4.57;;
22030;SDS011;11179;52.106;21.024;2023-06-05T02:21:49;7.73;;;3.47;;
22030;SDS011;11179;52.106;21.024;2023-06-05T02:24:16;9.83;;;3.67;;
22030;SDS011;11179;52.106;21.024;2023-06-05T02:26:43;7.23;;;3.10;;
22030;SDS011;11179;52.106;21.024;2023-06-05T02:29:09;8.77;;;4.10;;
22030;SDS011;11179;52.106;21.024;2023-06-05T02:31:34;9.80;;;3.80;;
22030;SDS011;11179;52.106;21.024;2023-06-05T02:33:59;13.70;;;3.60;;
22030;SDS011;11179;52.106;21.024;2023-06-05T02:36:25;7.80;;;3.00;;
22030;SDS011;11179;52.106;21.024;2023-06-05T02:38:50;7.40;;;3.40;;
22030;SDS011;11179;52.106;21.024;2023-06-05T02:41:17;8.17;;;3.20;;
22030;SDS011;11179;52.106;21.024;2023-06-05T02:43:43;6.93;;;3.10;;
22030;SDS011;11179;52.106;21.024;2023-06-05T02:46:09;11.90;;;3.63;;
22030;SDS011;11179;52.106;21.024;2023-06-05T02:48:35;6.40;;;3.30;;
22030;SDS011;11179;52.106;21.024;2023-06-05T02:51:01;6.73;;;3.30;;
22030;SDS011;11179;52.106;21.024;2023-06-05T02:53:26;8.93;;;3.40;;
22030;SDS011;11179;52.106;21.024;2023-06-05T02:55:51;8.30;;;3.37;;
22030;SDS011;11179;52.106;21.024;2023-06-05T02:58:18;8.00;;;3.53;;
22030;SDS011;11179;52.106;21.024;2023-06-05T03:00:44;9.27;;;3.80;;
22030;SDS011;11179;52.106;21.024;2023-06-05T03:03:10;9.93;;;3.90;;
22030;SDS011;11179;52.106;21.024;2023-06-05T03:05:36;8.07;;;3.60;;
22030;SDS011;11179;52.106;21.024;2023-06-05T03:08:02;8.20;;;3.27;;
22030;SDS011;11179;52.106;21.024;2023-06-05T03:10:28;7.97;;;3.57;;
22030;SDS011;11179;52.106;21.024;2023-06-05T03:12:54;5.87;;;3.30;;
22030;SDS011;11179;52.106;21.024;2023-06-05T03:15:19;7.63;;;3.30;;
22030;SDS011;11179;52.106;21.024;2023-06-05T03:17:45;8.27;;;4.00;;
22030;SDS011;11179;52.106;21.024;2023-06-05T03:20:11;8.67;;;3.50;;
22030;SDS011;11179;52.106;21.024;2023-06-05T03:22:37;8.97;;;3.50;;
22030;SDS011;11179;52.106;21.024;2023-06-05T03:25:03;7.70;;;3.40;;
22030;SDS011;11179;52.106;21.024;2023-06-05T03:27:29;8.60;;;3.07;;
22030;SDS011;11179;52.106;21.024;2023-06-05T03:29:54;12.03;;;3.60;;
22030;SDS011;11179;52.106;21.024;2023-06-05T03:32:21;11.37;;;4.20;;
22030;SDS011;11179;52.106;21.024;2023-06-05T03:34:46;8.10;;;2.87;;
22030;SDS011;11179;52.106;21.024;2023-06-05T03:37:13;9.07;;;3.67;;
22030;SDS011;11179;52.106;21.024;2023-06-05T03:39:39;8.07;;;3.77;;
22030;SDS011;11179;52.106;21.024;2023-06-05T03:42:05;7.50;;;3.40;;
22030;SDS011;11179;52.106;21.024;2023-06-05T03:44:34;12.90;;;4.13;;
22030;SDS011;11179;52.106;21.024;2023-06-05T03:46:59;10.20;;;3.70;;
22030;SDS011;11179;52.106;21.024;2023-06-05T03:49:25;7.43;;;3.43;;
22030;SDS011;11179;52.106;21.024;2023-06-05T03:51:50;9.97;;;3.97;;
22030;SDS011;11179;52.106;21.024;2023-06-05T03:54:17;9.17;;;4.63;;
22030;SDS011;11179;52.106;21.024;2023-06-05T03:56:42;8.53;;;3.63;;
22030;SDS011;11179;52.106;21.024;2023-06-05T03:59:14;11.00;;;4.17;;
22030;SDS011;11179;52.106;21.024;2023-06-05T04:01:47;8.87;;;4.00;;
22030;SDS011;11179;52.106;21.024;2023-06-05T04:04:13;9.83;;;4.10;;
22030;SDS011;11179;52.106;21.024;2023-06-05T04:06:39;12.50;;;4.67;;
22030;SDS011;11179;52.106;21.024;2023-06-05T04:09:05;9.67;;;4.80;;
22030;SDS011;11179;52.106;21.024;2023-06-05T04:11:36;8.00;;;3.77;;
22030;SDS011;11179;52.106;21.024;2023-06-05T04:14:04;10.43;;;4.57;;
22030;SDS011;11179;52.106;21.024;2023-06-05T04:16:30;13.73;;;4.50;;
22030;SDS011;11179;52.106;21.024;2023-06-05T04:18:56;11.67;;;4.60;;
22030;SDS011;11179;52.106;21.024;2023-06-05T04:21:21;10.30;;;4.10;;
22030;SDS011;11179;52.106;21.024;2023-06-05T04:23:46;11.03;;;4.30;;
22030;SDS011;11179;52.106;21.024;2023-06-05T04:26:12;10.27;;;4.30;;
22030;SDS011;11179;52.106;21.024;2023-06-05T04:28:38;9.00;;;4.47;;
22030;SDS011;11179;52.106;21.024;2023-06-05T04:31:04;10.13;;;4.20;;
22030;SDS011;11179;52.106;21.024;2023-06-05T04:33:29;14.80;;;4.30;;
22030;SDS011;11179;52.106;21.024;2023-06-05T04:35:54;14.87;;;4.40;;
22030;SDS011;11179;52.106;21.024;2023-06-05T04:38:20;10.10;;;4.87;;
22030;SDS011;11179;52.106;21.024;2023-06-05T04:40:46;8.57;;;3.60;;
22030;SDS011;11179;52.106;21.024;2023-06-05T04:43:13;9.87;;;3.40;;
22030;SDS011;11179;52.106;21.024;2023-06-05T04:45:39;7.23;;;3.47;;
22030;SDS011;11179;52.106;21.024;2023-06-05T04:48:05;8.63;;;3.17;;
22030;SDS011;11179;52.106;21.024;2023-06-05T04:50:30;7.97;;;3.20;;
22030;SDS011;11179;52.106;21.024;2023-06-05T04:52:56;11.63;;;3.10;;
22030;SDS011;11179;52.106;21.024;2023-06-05T04:55:21;10.60;;;2.90;;
22030;SDS011;11179;52.106;21.024;2023-06-05T04:57:47;7.63;;;2.93;;
22030;SDS011;11179;52.106;21.024;2023-06-05T05:00:14;9.47;;;2.57;;
22030;SDS011;11179;52.106;21.024;2023-06-05T05:02:40;9.50;;;3.00;;
22030;SDS011;11179;52.106;21.024;2023-06-05T05:05:05;16.00;;;3.70;;
22030;SDS011;11179;52.106;21.024;2023-06-05T05:07:31;8.47;;;3.33;;
22030;SDS011;11179;52.106;21.024;2023-06-05T05:09:57;17.10;;;3.73;;
22030;SDS011;11179;52.106;21.024;2023-06-05T05:12:23;9.40;;;2.57;;
22030;SDS011;11179;52.106;21.024;2023-06-05T05:14:48;11.17;;;3.30;;
22030;SDS011;11179;52.106;21.024;2023-06-05T05:17:13;9.93;;;2.60;;
22030;SDS011;11179;52.106;21.024;2023-06-05T05:19:44;7.50;;;3.20;;
22030;SDS011;11179;52.106;21.024;2023-06-05T05:22:10;11.87;;;2.50;;
22030;SDS011;11179;52.106;21.024;2023-06-05T05:24:36;11.47;;;3.40;;
22030;SDS011;11179;52.106;21.024;2023-06-05T05:27:01;6.00;;;2.90;;
22030;SDS011;11179;52.106;21.024;2023-06-05T05:29:26;11.57;;;2.67;;
22030;SDS011;11179;52.106;21.024;2023-06-05T05:31:52;9.40;;;3.97;;
22030;SDS011;11179;52.106;21.024;2023-06-05T05:34:18;12.27;;;3.03;;
22030;SDS011;11179;52.106;21.024;2023-06-05T05:36:43;10.83;;;3.20;;
22030;SDS011;11179;52.106;21.024;2023-06-05T05:39:08;10.13;;;3.00;;
22030;SDS011;11179;52.106;21.024;2023-06-05T05:41:35;6.53;;;2.67;;
22030;SDS011;11179;52.106;21.024;2023-06-05T05:44:00;10.63;;;2.60;;
22030;SDS011;11179;52.106;21.024;2023-06-05T05:46:25;7.60;;;2.63;;
22030;SDS011;11179;52.106;21.024;2023-06-05T05:48:51;8.70;;;2.20;;
22030;SDS011;11179;52.106;21.024;2023-06-05T05:51:16;6.90;;;2.33;;
22030;SDS011;11179;52.106;21.024;2023-06-05T05:53:42;13.93;;;2.83;;
22030;SDS011;11179;52.106;21.024;2023-06-05T05:56:07;7.43;;;2.40;;
22030;SDS011;11179;52.106;21.024;2023-06-05T05:58:32;8.17;;;2.53;;
22030;SDS011;11179;52.106;21.024;2023-06-05T06:00:59;12.90;;;2.80;;
22030;SDS011;11179;52.106;21.024;2023-06-05T06:03:25;8.67;;;2.57;;
22030;SDS011;11179;52.106;21.024;2023-06-05T06:05:55;7.43;;;2.20;;
22030;SDS011;11179;52.106;21.024;2023-06-05T06:08:21;8.67;;;2.50;;
22030;SDS011;11179;52.106;21.024;2023-06-05T06:10:47;5.53;;;2.20;;
22030;SDS011;11179;52.106;21.024;2023-06-05T06:13:13;5.43;;;1.67;;
22030;SDS011;11179;52.106;21.024;2023-06-05T06:15:38;5.67;;;2.17;;
22030;SDS011;11179;52.106;21.024;2023-06-05T06:18:04;7.03;;;2.57;;
22030;SDS011;11179;52.106;21.024;2023-06-05T06:20:30;9.73;;;3.20;;
22030;SDS011;11179;52.106;21.024;2023-06-05T06:22:56;10.60;;;2.27;;
22030;SDS011;11179;52.106;21.024;2023-06-05T06:25:22;6.87;;;1.90;;
22030;SDS011;11179;52.106;21.024;2023-06-05T06:27:51;5.60;;;2.00;;
22030;SDS011;11179;52.106;21.024;2023-06-05T06:30:18;7.60;;;2.37;;
22030;SDS011;11179;52.106;21.024;2023-06-05T06:32:44;6.33;;;1.60;;
22030;SDS011;11179;52.106;21.024;2023-06-05T06:35:10;8.03;;;1.70;;
22030;SDS011;11179;52.106;21.024;2023-06-05T06:37:38;7.10;;;1.90;;
22030;SDS011;11179;52.106;21.024;2023-06-05T06:40:05;8.33;;;1.43;;
22030;SDS011;11179;52.106;21.024;2023-06-05T06:42:34;3.90;;;1.30;;
22030;SDS011;11179;52.106;21.024;2023-06-05T06:45:00;4.70;;;1.50;;
22030;SDS011;11179;52.106;21.024;2023-06-05T06:47:26;9.53;;;1.60;;
22030;SDS011;11179;52.106;21.024;2023-06-05T06:49:52;5.90;;;1.60;;
22030;SDS011;11179;52.106;21.024;2023-06-05T06:52:18;5.60;;;2.10;;
22030;SDS011;11179;52.106;21.024;2023-06-05T06:54:45;5.93;;;1.57;;
22030;SDS011;11179;52.106;21.024;2023-06-05T06:57:10;6.67;;;1.60;;
22030;SDS011;11179;52.106;21.024;2023-06-05T06:59:36;6.40;;;1.70;;
22030;SDS011;11179;52.106;21.024;2023-06-05T07:02:08;7.67;;;1.87;;
22030;SDS011;11179;52.106;21.024;2023-06-05T07:04:42;8.57;;;1.70;;
22030;SDS011;11179;52.106;21.024;2023-06-05T07:07:12;11.70;;;1.50;;
22030;SDS011;11179;52.106;21.024;2023-06-05T07:09:39;10.30;;;1.80;;
22030;SDS011;11179;52.106;21.024;2023-06-05T07:12:07;3.93;;;1.50;;
22030;SDS011;11179;52.106;21.024;2023-06-05T07:14:33;4.53;;;1.53;;
22030;SDS011;11179;52.106;21.024;2023-06-05T07:16:59;3.97;;;1.40;;
22030;SDS011;11179;52.106;21.024;2023-06-05T07:19:25;6.63;;;2.07;;
22030;SDS011;11179;52.106;21.024;2023-06-05T07:21:55;6.73;;;1.90;;
22030;SDS011;11179;52.106;21.024;2023-06-05T07:24:22;4.67;;;1.50;;
22030;SDS011;11179;52.106;21.024;2023-06-05T07:26:49;13.60;;;1.93;;
22030;SDS011;11179;52.106;21.024;2023-06-05T07:29:16;9.50;;;1.83;;
22030;SDS011;11179;52.106;21.024;2023-06-05T07:31:42;7.53;;;1.47;;
22030;SDS011;11179;52.106;21.024;2023-06-05T07:34:08;9.70;;;1.63;;
22030;SDS011;11179;52.106;21.024;2023-06-05T07:36:33;7.30;;;2.00;;
22030;SDS011;11179;52.106;21.024;2023-06-05T07:38:58;7.07;;;1.40;;
22030;SDS011;11179;52.106;21.024;2023-06-05T07:41:24;7.30;;;1.77;;
22030;SDS011;11179;52.106;21.024;2023-06-05T07:43:50;6.63;;;1.70;;
22030;SDS011;11179;52.106;21.024;2023-06-05T07:46:15;4.80;;;1.33;;
22030;SDS011;11179;52.106;21.024;2023-06-05T07:48:41;4.73;;;1.60;;
22030;SDS011;11179;52.106;21.024;2023-06-05T07:51:06;5.47;;;1.47;;
22030;SDS011;11179;52.106;21.024;2023-06-05T07:53:33;4.57;;;1.37;;
22030;SDS011;11179;52.106;21.024;2023-06-05T07:55:59;6.17;;;2.30;;
22030;SDS011;11179;52.106;21.024;2023-06-05T07:58:24;4.53;;;1.40;;
22030;SDS011;11179;52.106;21.024;2023-06-05T08:00:52;6.07;;;1.97;;
22030;SDS011;11179;52.106;21.024;2023-06-05T08:03:18;6.10;;;1.70;;
22030;SDS011;11179;52.106;21.024;2023-06-05T08:05:48;4.80;;;1.40;;
22030;SDS011;11179;52.106;21.024;2023-06-05T08:08:15;4.70;;;1.20;;
22030;SDS011;11179;52.106;21.024;2023-06-05T08:10:40;4.10;;;1.40;;
22030;SDS011;11179;52.106;21.024;2023-06-05T08:13:07;7.83;;;1.40;;
22030;SDS011;11179;52.106;21.024;2023-06-05T08:15:33;4.03;;;1.30;;
22030;SDS011;11179;52.106;21.024;2023-06-05T08:17:58;5.30;;;1.40;;
22030;SDS011;11179;52.106;21.024;2023-06-05T08:20:23;4.10;;;1.30;;
22030;SDS011;11179;52.106;21.024;2023-06-05T08:22:49;9.57;;;1.60;;
22030;SDS011;11179;52.106;21.024;2023-06-05T08:25:14;6.03;;;1.40;;
22030;SDS011;11179;52.106;21.024;2023-06-05T08:27:40;5.93;;;1.20;;
22030;SDS011;11179;52.106;21.024;2023-06-05T08:30:05;4.90;;;1.17;;
22030;SDS011;11179;52.106;21.024;2023-06-05T08:32:31;11.07;;;1.77;;
22030;SDS011;11179;52.106;21.024;2023-06-05T08:34:57;5.30;;;1.27;;
22030;SDS011;11179;52.106;21.024;2023-06-05T08:37:23;5.07;;;2.17;;
22030;SDS011;11179;52.106;21.024;2023-06-05T08:39:48;5.77;;;1.70;;
22030;SDS011;11179;52.106;21.024;2023-06-05T08:42:15;4.43;;;1.80;;
22030;SDS011;11179;52.106;21.024;2023-06-05T08:44:43;10.47;;;1.70;;
22030;SDS011;11179;52.106;21.024;2023-06-05T08:47:12;6.53;;;1.83;;
22030;SDS011;11179;52.106;21.024;2023-06-05T08:49:40;4.40;;;1.50;;
22030;SDS011;11179;52.106;21.024;2023-06-05T08:52:06;10.63;;;1.60;;
22030;SDS011;11179;52.106;21.024;2023-06-05T08:54:34;6.30;;;1.60;;
22030;SDS011;11179;52.106;21.024;2023-06-05T08:57:02;4.30;;;1.30;;
22030;SDS011;11179;52.106;21.024;2023-06-05T08:59:29;4.60;;;1.40;;
22030;SDS011;11179;52.106;21.024;2023-06-05T09:01:55;3.80;;;1.33;;
22030;SDS011;11179;52.106;21.024;2023-06-05T09:04:21;8.17;;;1.67;;
22030;SDS011;11179;52.106;21.024;2023-06-05T09:06:49;5.20;;;1.93;;
22030;SDS011;11179;52.106;21.024;2023-06-05T09:09:17;4.33;;;1.50;;
22030;SDS011;11179;52.106;21.024;2023-06-05T09:11:43;5.10;;;1.50;;
22030;SDS011;11179;52.106;21.024;2023-06-05T09:14:09;4.33;;;1.40;;
22030;SDS011;11179;52.106;21.024;2023-06-05T09:16:35;4.87;;;1.73;;
22030;SDS011;11179;52.106;21.024;2023-06-05T09:19:08;4.30;;;1.33;;
22030;SDS011;11179;52.106;21.024;2023-06-05T09:21:35;6.23;;;1.60;;
22030;SDS011;11179;52.106;21.024;2023-06-05T09:27:08;7.43;;;1.67;;
22030;SDS011;11179;52.106;21.024;2023-06-05T09:29:28;10.23;;;1.90;;
22030;SDS011;11179;52.106;21.024;2023-06-05T09:31:54;4.10;;;1.33;;
22030;SDS011;11179;52.106;21.024;2023-06-05T09:34:22;4.30;;;1.50;;
22030;SDS011;11179;52.106;21.024;2023-06-05T09:36:49;5.63;;;1.63;;
22030;SDS011;11179;52.106;21.024;2023-06-05T09:39:15;7.30;;;1.60;;
22030;SDS011;11179;52.106;21.024;2023-06-05T09:41:44;4.43;;;1.70;;
22030;SDS011;11179;52.106;21.024;2023-06-05T09:44:11;4.80;;;1.40;;
22030;SDS011;11179;52.106;21.024;2023-06-05T09:49:30;8.40;;;1.80;;
22030;SDS011;11179;52.106;21.024;2023-06-05T09:52:08;5.57;;;1.63;;
22030;SDS011;11179;52.106;21.024;2023-06-05T09:54:38;3.90;;;1.40;;
22030;SDS011;11179;52.106;21.024;2023-06-05T09:57:10;4.90;;;1.50;;
22030;SDS011;11179;52.106;21.024;2023-06-05T09:59:55;7.13;;;2.20;;
22030;SDS011;11179;52.106;21.024;2023-06-05T10:02:21;7.27;;;1.50;;
22030;SDS011;11179;52.106;21.024;2023-06-05T10:04:52;7.20;;;1.90;;
22030;SDS011;11179;52.106;21.024;2023-06-05T10:07:27;9.60;;;1.93;;
22030;SDS011;11179;52.106;21.024;2023-06-05T10:09:54;6.80;;;1.60;;
22030;SDS011;11179;52.106;21.024;2023-06-05T10:12:21;4.53;;;1.77;;
22030;SDS011;11179;52.106;21.024;2023-06-05T10:14:49;6.00;;;2.37;;
22030;SDS011;11179;52.106;21.024;2023-06-05T10:17:15;5.73;;;1.80;;
22030;SDS011;11179;52.106;21.024;2023-06-05T10:19:44;5.07;;;1.63;;
22030;SDS011;11179;52.106;21.024;2023-06-05T10:22:13;4.40;;;1.60;;
22030;SDS011;11179;52.106;21.024;2023-06-05T10:24:41;5.63;;;1.80;;
22030;SDS011;11179;52.106;21.024;2023-06-05T10:35:02;7.07;;;2.07;;
22030;SDS011;11179;52.106;21.024;2023-06-05T10:40:21;9.67;;;2.27;;
22030;SDS011;11179;52.106;21.024;2023-06-05T10:42:49;7.50;;;2.37;;
22030;SDS011;11179;52.106;21.024;2023-06-05T10:45:28;5.03;;;1.70;;
22030;SDS011;11179;52.106;21.024;2023-06-05T10:47:55;4.80;;;1.83;;
22030;SDS011;11179;52.106;21.024;2023-06-05T10:50:23;5.50;;;1.70;;
22030;SDS011;11179;52.106;21.024;2023-06-05T10:52:54;8.53;;;2.20;;
22030;SDS011;11179;52.106;21.024;2023-06-05T10:55:22;7.30;;;1.80;;
22030;SDS011;11179;52.106;21.024;2023-06-05T11:00:26;8.00;;;1.70;;
22030;SDS011;11179;52.106;21.024;2023-06-05T11:02:52;4.80;;;1.67;;
22030;SDS011;11179;52.106;21.024;2023-06-05T11:05:18;6.40;;;1.63;;
22030;SDS011;11179;52.106;21.024;2023-06-05T11:07:45;5.17;;;1.80;;
22030;SDS011;11179;52.106;21.024;2023-06-05T11:15:11;8.73;;;1.90;;
22030;SDS011;11179;52.106;21.024;2023-06-05T11:27:43;7.20;;;1.60;;
22030;SDS011;11179;52.106;21.024;2023-06-05T11:30:14;5.90;;;1.70;;
22030;SDS011;11179;52.106;21.024;2023-06-05T11:32:41;3.80;;;1.40;;
22030;SDS011;11179;52.106;21.024;2023-06-05T11:35:07;4.13;;;1.47;;
22030;SDS011;11179;52.106;21.024;2023-06-05T11:37:33;7.90;;;1.70;;
22030;SDS011;11179;52.106;21.024;2023-06-05T11:39:59;5.40;;;1.93;;
22030;SDS011;11179;52.106;21.024;2023-06-05T11:42:29;4.33;;;1.57;;
22030;SDS011;11179;52.106;21.024;2023-06-05T11:44:54;5.90;;;2.00;;
22030;SDS011;11179;52.106;21.024;2023-06-05T11:47:23;6.97;;;1.90;;
22030;SDS011;11179;52.106;21.024;2023-06-05T11:49:49;4.20;;;1.53;;
22030;SDS011;11179;52.106;21.024;2023-06-05T11:52:18;6.83;;;1.60;;
22030;SDS011;11179;52.106;21.024;2023-06-05T11:54:45;10.03;;;1.70;;
22030;SDS011;11179;52.106;21.024;2023-06-05T11:57:18;6.80;;;1.90;;
22030;SDS011;11179;52.106;21.024;2023-06-05T11:59:51;6.00;;;1.20;;
22030;SDS011;11179;52.106;21.024;2023-06-05T12:02:20;5.93;;;1.60;;
22030;SDS011;11179;52.106;21.024;2023-06-05T12:04:47;9.20;;;1.90;;
22030;SDS011;11179;52.106;21.024;2023-06-05T12:07:12;4.80;;;1.93;;
22030;SDS011;11179;52.106;21.024;2023-06-05T12:09:37;8.03;;;1.73;;
22030;SDS011;11179;52.106;21.024;2023-06-05T12:12:06;6.07;;;2.40;;
22030;SDS011;11179;52.106;21.024;2023-06-05T12:14:33;6.70;;;1.70;;
22030;SDS011;11179;52.106;21.024;2023-06-05T12:16:59;5.27;;;1.70;;
22030;SDS011;11179;52.106;21.024;2023-06-05T12:19:25;4.60;;;1.73;;
22030;SDS011;11179;52.106;21.024;2023-06-05T12:21:50;4.87;;;1.73;;
22030;SDS011;11179;52.106;21.024;2023-06-05T12:24:26;5.33;;;1.50;;
22030;SDS011;11179;52.106;21.024;2023-06-05T12:29:24;7.00;;;1.80;;
22030;SDS011;11179;52.106;21.024;2023-06-05T12:31:53;4.37;;;1.50;;
22030;SDS011;11179;52.106;21.024;2023-06-05T12:34:18;9.20;;;2.00;;
22030;SDS011;11179;52.106;21.024;2023-06-05T12:36:46;5.73;;;2.60;;
22030;SDS011;11179;52.106;21.024;2023-06-05T12:39:12;6.23;;;1.50;;
22030;SDS011;11179;52.106;21.024;2023-06-05T12:41:39;6.23;;;2.00;;
22030;SDS011;11179;52.106;21.024;2023-06-05T12:44:05;6.37;;;1.63;;
22030;SDS011;11179;52.106;21.024;2023-06-05T12:46:32;4.17;;;1.40;;
22030;SDS011;11179;52.106;21.024;2023-06-05T12:49:01;3.97;;;1.40;;
22030;SDS011;11179;52.106;21.024;2023-06-05T12:51:27;9.10;;;2.10;;
22030;SDS011;11179;52.106;21.024;2023-06-05T12:53:53;7.03;;;1.80;;
22030;SDS011;11179;52.106;21.024;2023-06-05T12:56:19;4.47;;;1.60;;
22030;SDS011;11179;52.106;21.024;2023-06-05T12:58:49;5.37;;;1.80;;
22030;SDS011;11179;52.106;21.024;2023-06-05T13:01:18;4.83;;;1.67;;
22030;SDS011;11179;52.106;21.024;2023-06-05T13:03:44;5.40;;;1.80;;
22030;SDS011;11179;52.106;21.024;2023-06-05T13:06:10;4.87;;;1.63;;
22030;SDS011;11179;52.106;21.024;2023-06-05T13:08:35;4.20;;;1.60;;
22030;SDS011;11179;52.106;21.024;2023-06-05T13:11:01;5.70;;;1.53;;
22030;SDS011;11179;52.106;21.024;2023-06-05T13:13:26;5.13;;;1.90;;
22030;SDS011;11179;52.106;21.024;2023-06-05T13:15:51;5.73;;;1.90;;
22030;SDS011;11179;52.106;21.024;2023-06-05T13:18:17;4.27;;;1.70;;
22030;SDS011;11179;52.106;21.024;2023-06-05T13:20:42;11.63;;;1.70;;
22030;SDS011;11179;52.106;21.024;2023-06-05T13:23:07;4.40;;;1.70;;
22030;SDS011;11179;52.106;21.024;2023-06-05T13:25:35;8.33;;;2.00;;
22030;SDS011;11179;52.106;21.024;2023-06-05T13:28:00;4.30;;;1.53;;
22030;SDS011;11179;52.106;21.024;2023-06-05T13:30:26;5.20;;;1.70;;
22030;SDS011;11179;52.106;21.024;2023-06-05T13:32:51;7.50;;;1.77;;
22030;SDS011;11179;52.106;21.024;2023-06-05T13:35:19;5.60;;;1.70;;
22030;SDS011;11179;52.106;21.024;2023-06-05T13:37:44;7.47;;;1.60;;
22030;SDS011;11179;52.106;21.024;2023-06-05T13:40:10;5.90;;;1.80;;
22030;SDS011;11179;52.106;21.024;2023-06-05T13:42:35;4.43;;;1.50;;
22030;SDS011;11179;52.106;21.024;2023-06-05T13:45:01;6.90;;;1.80;;
22030;SDS011;11179;52.106;21.024;2023-06-05T13:47:28;4.17;;;1.50;;
22030;SDS011;11179;52.106;21.024;2023-06-05T13:49:54;5.27;;;1.40;;
22030;SDS011;11179;52.106;21.024;2023-06-05T13:52:20;7.20;;;1.93;;
22030;SDS011;11179;52.106;21.024;2023-06-05T13:54:46;5.73;;;1.43;;
22030;SDS011;11179;52.106;21.024;2023-06-05T13:57:11;6.07;;;1.60;;
22030;SDS011;11179;52.106;21.024;2023-06-05T13:59:37;11.50;;;1.60;;
22030;SDS011;11179;52.106;21.024;2023-06-05T14:02:03;10.70;;;2.40;;
22030;SDS011;11179;52.106;21.024;2023-06-05T14:04:28;5.20;;;1.90;;
22030;SDS011;11179;52.106;21.024;2023-06-05T14:06:53;6.00;;;2.00;;
22030;SDS011;11179;52.106;21.024;2023-06-05T14:09:19;4.13;;;1.70;;
22030;SDS011;11179;52.106;21.024;2023-06-05T14:11:45;7.60;;;1.97;;
22030;SDS011;11179;52.106;21.024;2023-06-05T14:14:10;8.03;;;2.20;;
22030;SDS011;11179;52.106;21.024;2023-06-05T14:16:36;4.50;;;1.83;;
22030;SDS011;11179;52.106;21.024;2023-06-05T14:19:02;7.83;;;1.77;;
22030;SDS011;11179;52.106;21.024;2023-06-05T14:21:27;7.00;;;2.17;;
22030;SDS011;11179;52.106;21.024;2023-06-05T14:23:53;4.70;;;1.53;;
22030;SDS011;11179;52.106;21.024;2023-06-05T14:26:18;5.57;;;1.60;;
22030;SDS011;11179;52.106;21.024;2023-06-05T14:28:43;7.10;;;2.20;;
22030;SDS011;11179;52.106;21.024;2023-06-05T14:31:09;4.97;;;2.03;;
22030;SDS011;11179;52.106;21.024;2023-06-05T14:33:34;5.70;;;1.83;;
22030;SDS011;11179;52.106;21.024;2023-06-05T14:35:59;7.03;;;2.30;;
22030;SDS011;11179;52.106;21.024;2023-06-05T14:38:25;4.57;;;1.70;;
22030;SDS011;11179;52.106;21.024;2023-06-05T14:40:50;4.80;;;1.80;;
22030;SDS011;11179;52.106;21.024;2023-06-05T14:43:17;6.73;;;1.80;;
22030;SDS011;11179;52.106;21.024;2023-06-05T14:45:43;6.43;;;1.70;;
22030;SDS011;11179;52.106;21.024;2023-06-05T14:48:08;4.80;;;1.80;;
22030;SDS011;11179;52.106;21.024;2023-06-05T14:50:36;21.97;;;2.57;;
22030;SDS011;11179;52.106;21.024;2023-06-05T14:53:01;6.23;;;1.93;;
22030;SDS011;11179;52.106;21.024;2023-06-05T14:55:27;11.07;;;3.87;;
22030;SDS011;11179;52.106;21.024;2023-06-05T14:57:52;9.83;;;3.00;;
22030;SDS011;11179;52.106;21.024;2023-06-05T15:00:17;5.00;;;1.80;;
22030;SDS011;11179;52.106;21.024;2023-06-05T15:02:43;5.50;;;1.63;;
22030;SDS011;11179;52.106;21.024;2023-06-05T15:05:08;5.37;;;1.80;;
22030;SDS011;11179;52.106;21.024;2023-06-05T15:07:37;8.53;;;1.90;;
22030;SDS011;11179;52.106;21.024;2023-06-05T15:10:04;8.80;;;2.47;;
22030;SDS011;11179;52.106;21.024;2023-06-05T15:12:30;4.57;;;1.67;;
22030;SDS011;11179;52.106;21.024;2023-06-05T15:14:56;4.43;;;1.70;;